sensor_id;sensor_type;location;lat;lon;timestamp;temperature;humidity
7360;DHT22;3720;48.274;7.796;2023-12-20T00:02:21;6.60;99.90
7360;DHT22;3720;48.274;7.796;2023-12-20T00:04:54;6.60;99.90
7360;DHT22;3720;48.274;7.796;2023-12-20T00:07:25;6.60;99.90
7360;DHT22;3720;48.274;7.796;2023-12-20T00:09:57;6.60;99.90
7360;DHT22;3720;48.274;7.796;2023-12-20T00:12:29;6.60;99.90
7360;DHT22;3720;48.274;7.796;2023-12-20T00:15:01;6.60;99.90
7360;DHT22;3720;48.274;7.796;2023-12-20T00:17:33;6.60;99.90
7360;DHT22;3720;48.274;7.796;2023-12-20T00:20:07;6.50;99.90
7360;DHT22;3720;48.274;7.796;2023-12-20T00:22:39;6.50;99.90
7360;DHT22;3720;48.274;7.796;2023-12-20T00:25:11;6.50;99.90
7360;DHT22;3720;48.274;7.796;2023-12-20T00:27:43;6.50;99.90
7360;DHT22;3720;48.274;7.796;2023-12-20T00:30:15;6.50;99.90
7360;DHT22;3720;48.274;7.796;2023-12-20T00:32:47;6.50;99.90
7360;DHT22;3720;48.274;7.796;2023-12-20T00:35:20;6.50;99.90
7360;DHT22;3720;48.274;7.796;2023-12-20T00:37:52;6.50;99.90
7360;DHT22;3720;48.274;7.796;2023-12-20T00:40:24;6.50;99.90
7360;DHT22;3720;48.274;7.796;2023-12-20T00:42:55;6.50;99.90
7360;DHT22;3720;48.274;7.796;2023-12-20T00:45:27;6.50;99.90
7360;DHT22;3720;48.274;7.796;2023-12-20T00:47:59;6.50;99.90
7360;DHT22;3720;48.274;7.796;2023-12-20T00:50:32;6.50;99.90
7360;DHT22;3720;48.274;7.796;2023-12-20T00:53:04;6.60;99.90
7360;DHT22;3720;48.274;7.796;2023-12-20T00:55:36;6.60;99.90
7360;DHT22;3720;48.274;7.796;2023-12-20T00:58:08;6.60;99.90
7360;DHT22;3720;48.274;7.796;2023-12-20T01:00:40;6.60;99.90
7360;DHT22;3720;48.274;7.796;2023-12-20T01:03:12;6.60;99.90
7360;DHT22;3720;48.274;7.796;2023-12-20T01:05:47;6.60;99.90
7360;DHT22;3720;48.274;7.796;2023-12-20T01:08:18;6.60;99.90
7360;DHT22;3720;48.274;7.796;2023-12-20T01:10:50;6.60;99.90
7360;DHT22;3720;48.274;7.796;2023-12-20T01:13:22;6.50;99.90
7360;DHT22;3720;48.274;7.796;2023-12-20T01:15:54;6.60;99.90
7360;DHT22;3720;48.274;7.796;2023-12-20T01:18:26;6.60;99.90
7360;DHT22;3720;48.274;7.796;2023-12-20T01:21:03;6.60;99.90
7360;DHT22;3720;48.274;7.796;2023-12-20T01:23:35;6.70;99.90
7360;DHT22;3720;48.274;7.796;2023-12-20T01:26:07;6.70;99.90
7360;DHT22;3720;48.274;7.796;2023-12-20T01:28:38;6.70;99.90
7360;DHT22;3720;48.274;7.796;2023-12-20T01:31:10;6.70;99.90
7360;DHT22;3720;48.274;7.796;2023-12-20T01:33:42;6.60;99.90
7360;DHT22;3720;48.274;7.796;2023-12-20T01:36:15;6.60;99.90
7360;DHT22;3720;48.274;7.796;2023-12-20T01:38:47;6.60;99.90
7360;DHT22;3720;48.274;7.796;2023-12-20T01:41:19;6.60;99.90
7360;DHT22;3720;48.274;7.796;2023-12-20T01:43:50;6.60;99.90
7360;DHT22;3720;48.274;7.796;2023-12-20T01:46:23;6.60;99.90
7360;DHT22;3720;48.274;7.796;2023-12-20T01:48:55;6.60;99.90
7360;DHT22;3720;48.274;7.796;2023-12-20T01:51:29;6.60;99.90
7360;DHT22;3720;48.274;7.796;2023-12-20T01:54:01;6.60;99.90
7360;DHT22;3720;48.274;7.796;2023-12-20T01:56:33;6.60;99.90
7360;DHT22;3720;48.274;7.796;2023-12-20T01:59:06;6.60;99.90
7360;DHT22;3720;48.274;7.796;2023-12-20T02:01:39;6.70;99.90
7360;DHT22;3720;48.274;7.796;2023-12-20T02:04:11;6.60;99.90
7360;DHT22;3720;48.274;7.796;2023-12-20T02:06:46;6.60;99.90
7360;DHT22;3720;48.274;7.796;2023-12-20T02:09:18;6.60;99.90
7360;DHT22;3720;48.274;7.796;2023-12-20T02:11:50;6.60;99.90
7360;DHT22;3720;48.274;7.796;2023-12-20T02:14:22;6.60;99.90
7360;DHT22;3720;48.274;7.796;2023-12-20T02:16:54;6.50;99.90
7360;DHT22;3720;48.274;7.796;2023-12-20T02:19:25;6.60;99.90
7360;DHT22;3720;48.274;7.796;2023-12-20T02:22:09;6.50;99.90
7360;DHT22;3720;48.274;7.796;2023-12-20T02:24:41;6.60;99.90
7360;DHT22;3720;48.274;7.796;2023-12-20T02:27:13;6.60;99.90
7360;DHT22;3720;48.274;7.796;2023-12-20T02:29:47;6.60;99.90
7360;DHT22;3720;48.274;7.796;2023-12-20T02:32:19;6.60;99.90
7360;DHT22;3720;48.274;7.796;2023-12-20T02:34:52;6.60;99.90
7360;DHT22;3720;48.274;7.796;2023-12-20T02:37:25;6.60;99.90
7360;DHT22;3720;48.274;7.796;2023-12-20T02:39:57;6.60;99.90
7360;DHT22;3720;48.274;7.796;2023-12-20T02:42:28;6.60;99.90
7360;DHT22;3720;48.274;7.796;2023-12-20T02:45:00;6.60;99.90
7360;DHT22;3720;48.274;7.796;2023-12-20T02:47:32;6.60;99.90
7360;DHT22;3720;48.274;7.796;2023-12-20T02:50:04;6.60;99.90
7360;DHT22;3720;48.274;7.796;2023-12-20T02:52:37;6.60;99.90
7360;DHT22;3720;48.274;7.796;2023-12-20T02:55:09;6.60;99.90
7360;DHT22;3720;48.274;7.796;2023-12-20T02:57:41;6.60;99.90
7360;DHT22;3720;48.274;7.796;2023-12-20T03:00:14;6.60;99.90
7360;DHT22;3720;48.274;7.796;2023-12-20T03:02:45;6.60;99.90
7360;DHT22;3720;48.274;7.796;2023-12-20T03:05:17;6.60;99.90
7360;DHT22;3720;48.274;7.796;2023-12-20T03:07:50;6.60;99.90
7360;DHT22;3720;48.274;7.796;2023-12-20T03:10:22;6.50;99.90
7360;DHT22;3720;48.274;7.796;2023-12-20T03:12:54;6.60;99.90
7360;DHT22;3720;48.274;7.796;2023-12-20T03:15:26;6.50;99.90
7360;DHT22;3720;48.274;7.796;2023-12-20T03:17:57;6.60;99.90
7360;DHT22;3720;48.274;7.796;2023-12-20T03:20:30;6.60;99.90
7360;DHT22;3720;48.274;7.796;2023-12-20T03:23:15;6.60;99.90
7360;DHT22;3720;48.274;7.796;2023-12-20T03:25:47;6.60;99.90
7360;DHT22;3720;48.274;7.796;2023-12-20T03:28:19;6.60;99.90
7360;DHT22;3720;48.274;7.796;2023-12-20T03:30:51;6.60;99.90
7360;DHT22;3720;48.274;7.796;2023-12-20T03:33:23;6.60;99.90
7360;DHT22;3720;48.274;7.796;2023-12-20T03:35:55;6.60;99.90
7360;DHT22;3720;48.274;7.796;2023-12-20T03:38:28;6.60;99.90
7360;DHT22;3720;48.274;7.796;2023-12-20T03:41:00;6.60;99.90
7360;DHT22;3720;48.274;7.796;2023-12-20T03:43:31;6.60;99.90
7360;DHT22;3720;48.274;7.796;2023-12-20T03:46:03;6.60;99.90
7360;DHT22;3720;48.274;7.796;2023-12-20T03:48:35;6.60;99.90
7360;DHT22;3720;48.274;7.796;2023-12-20T03:51:07;6.60;99.90
7360;DHT22;3720;48.274;7.796;2023-12-20T03:53:40;6.70;99.90
7360;DHT22;3720;48.274;7.796;2023-12-20T03:56:12;6.70;99.90
7360;DHT22;3720;48.274;7.796;2023-12-20T03:58:44;6.70;99.90
7360;DHT22;3720;48.274;7.796;2023-12-20T04:01:16;6.60;99.90
7360;DHT22;3720;48.274;7.796;2023-12-20T04:03:47;6.60;99.90
7360;DHT22;3720;48.274;7.796;2023-12-20T04:06:19;6.70;99.90
7360;DHT22;3720;48.274;7.796;2023-12-20T04:08:52;6.70;99.90
7360;DHT22;3720;48.274;7.796;2023-12-20T04:11:24;6.70;99.90
7360;DHT22;3720;48.274;7.796;2023-12-20T04:13:56;6.60;99.90
7360;DHT22;3720;48.274;7.796;2023-12-20T04:16:28;6.70;99.90
7360;DHT22;3720;48.274;7.796;2023-12-20T04:18:59;6.70;99.90
7360;DHT22;3720;48.274;7.796;2023-12-20T04:21:31;6.70;99.90
7360;DHT22;3720;48.274;7.796;2023-12-20T04:24:05;6.70;99.90
7360;DHT22;3720;48.274;7.796;2023-12-20T04:26:37;6.70;99.90
7360;DHT22;3720;48.274;7.796;2023-12-20T04:29:09;6.70;99.90
7360;DHT22;3720;48.274;7.796;2023-12-20T04:31:41;6.70;99.90
7360;DHT22;3720;48.274;7.796;2023-12-20T04:34:13;6.70;99.90
7360;DHT22;3720;48.274;7.796;2023-12-20T04:36:44;6.70;99.90
7360;DHT22;3720;48.274;7.796;2023-12-20T04:39:18;6.70;99.90
7360;DHT22;3720;48.274;7.796;2023-12-20T04:41:49;6.70;99.90
7360;DHT22;3720;48.274;7.796;2023-12-20T04:44:21;6.80;99.90
7360;DHT22;3720;48.274;7.796;2023-12-20T04:46:54;6.80;99.90
7360;DHT22;3720;48.274;7.796;2023-12-20T04:49:27;6.80;99.90
7360;DHT22;3720;48.274;7.796;2023-12-20T04:51:58;6.80;99.90
7360;DHT22;3720;48.274;7.796;2023-12-20T04:54:32;6.80;99.90
7360;DHT22;3720;48.274;7.796;2023-12-20T04:57:04;6.80;99.90
7360;DHT22;3720;48.274;7.796;2023-12-20T04:59:35;6.80;99.90
7360;DHT22;3720;48.274;7.796;2023-12-20T05:02:07;6.80;99.90
7360;DHT22;3720;48.274;7.796;2023-12-20T05:04:39;6.80;99.90
7360;DHT22;3720;48.274;7.796;2023-12-20T05:07:12;6.80;99.90
7360;DHT22;3720;48.274;7.796;2023-12-20T05:09:45;6.80;99.90
7360;DHT22;3720;48.274;7.796;2023-12-20T05:12:16;6.70;99.90
7360;DHT22;3720;48.274;7.796;2023-12-20T05:14:48;6.70;99.90
7360;DHT22;3720;48.274;7.796;2023-12-20T05:17:20;6.70;99.90
7360;DHT22;3720;48.274;7.796;2023-12-20T05:19:52;6.70;99.90
7360;DHT22;3720;48.274;7.796;2023-12-20T05:22:24;6.60;99.90
7360;DHT22;3720;48.274;7.796;2023-12-20T05:24:57;6.60;99.90
7360;DHT22;3720;48.274;7.796;2023-12-20T05:27:29;6.60;99.90
7360;DHT22;3720;48.274;7.796;2023-12-20T05:30:00;6.50;99.90
7360;DHT22;3720;48.274;7.796;2023-12-20T05:32:32;6.60;99.90
7360;DHT22;3720;48.274;7.796;2023-12-20T05:35:04;6.60;99.90
7360;DHT22;3720;48.274;7.796;2023-12-20T05:37:36;6.60;99.90
7360;DHT22;3720;48.274;7.796;2023-12-20T05:40:10;6.60;99.90
7360;DHT22;3720;48.274;7.796;2023-12-20T05:42:42;6.60;99.90
7360;DHT22;3720;48.274;7.796;2023-12-20T05:45:15;6.60;99.90
7360;DHT22;3720;48.274;7.796;2023-12-20T05:47:46;6.60;99.90
7360;DHT22;3720;48.274;7.796;2023-12-20T05:50:18;6.60;99.90
7360;DHT22;3720;48.274;7.796;2023-12-20T05:52:51;6.60;99.90
7360;DHT22;3720;48.274;7.796;2023-12-20T05:55:25;6.60;99.90
7360;DHT22;3720;48.274;7.796;2023-12-20T05:57:57;6.60;99.90
7360;DHT22;3720;48.274;7.796;2023-12-20T06:00:29;6.60;99.90
7360;DHT22;3720;48.274;7.796;2023-12-20T06:03:01;6.50;99.90
7360;DHT22;3720;48.274;7.796;2023-12-20T06:05:32;6.50;99.90
7360;DHT22;3720;48.274;7.796;2023-12-20T06:08:05;6.50;99.90
7360;DHT22;3720;48.274;7.796;2023-12-20T06:10:38;6.50;99.90
7360;DHT22;3720;48.274;7.796;2023-12-20T06:13:10;6.50;99.90
7360;DHT22;3720;48.274;7.796;2023-12-20T06:15:43;6.50;99.90
7360;DHT22;3720;48.274;7.796;2023-12-20T06:18:15;6.50;99.90
7360;DHT22;3720;48.274;7.796;2023-12-20T06:20:47;6.40;99.90
7360;DHT22;3720;48.274;7.796;2023-12-20T06:23:19;6.40;99.90
7360;DHT22;3720;48.274;7.796;2023-12-20T06:25:52;6.40;99.90
7360;DHT22;3720;48.274;7.796;2023-12-20T06:28:24;6.50;99.90
7360;DHT22;3720;48.274;7.796;2023-12-20T06:30:56;6.50;99.90
7360;DHT22;3720;48.274;7.796;2023-12-20T06:33:27;6.60;99.90
7360;DHT22;3720;48.274;7.796;2023-12-20T06:36:00;6.60;99.90
7360;DHT22;3720;48.274;7.796;2023-12-20T06:38:32;6.60;99.90
7360;DHT22;3720;48.274;7.796;2023-12-20T06:41:05;6.60;99.90
7360;DHT22;3720;48.274;7.796;2023-12-20T06:43:37;6.50;99.90
7360;DHT22;3720;48.274;7.796;2023-12-20T06:46:09;6.50;99.90
7360;DHT22;3720;48.274;7.796;2023-12-20T06:48:43;6.50;99.90
7360;DHT22;3720;48.274;7.796;2023-12-20T06:51:16;6.50;99.90
7360;DHT22;3720;48.274;7.796;2023-12-20T06:53:48;6.40;99.90
7360;DHT22;3720;48.274;7.796;2023-12-20T06:56:21;6.40;99.90
7360;DHT22;3720;48.274;7.796;2023-12-20T06:58:53;6.60;99.90
7360;DHT22;3720;48.274;7.796;2023-12-20T07:01:25;6.60;99.90
7360;DHT22;3720;48.274;7.796;2023-12-20T07:03:56;6.70;99.90
7360;DHT22;3720;48.274;7.796;2023-12-20T07:06:28;6.70;99.90
7360;DHT22;3720;48.274;7.796;2023-12-20T07:09:00;6.80;99.90
7360;DHT22;3720;48.274;7.796;2023-12-20T07:11:33;6.80;99.90
7360;DHT22;3720;48.274;7.796;2023-12-20T07:14:05;6.80;99.90
7360;DHT22;3720;48.274;7.796;2023-12-20T07:16:37;6.80;99.90
7360;DHT22;3720;48.274;7.796;2023-12-20T07:19:09;6.80;99.90
7360;DHT22;3720;48.274;7.796;2023-12-20T07:21:40;6.80;99.90
7360;DHT22;3720;48.274;7.796;2023-12-20T07:24:12;6.80;99.90
7360;DHT22;3720;48.274;7.796;2023-12-20T07:26:45;6.90;99.90
7360;DHT22;3720;48.274;7.796;2023-12-20T07:29:17;6.80;99.90
7360;DHT22;3720;48.274;7.796;2023-12-20T07:31:49;6.80;99.90
7360;DHT22;3720;48.274;7.796;2023-12-20T07:34:22;6.80;99.90
7360;DHT22;3720;48.274;7.796;2023-12-20T07:36:54;6.80;99.90
7360;DHT22;3720;48.274;7.796;2023-12-20T07:39:26;6.80;99.90
7360;DHT22;3720;48.274;7.796;2023-12-20T07:41:59;6.70;99.90
7360;DHT22;3720;48.274;7.796;2023-12-20T07:44:31;6.70;99.90
7360;DHT22;3720;48.274;7.796;2023-12-20T07:47:03;6.70;99.90
7360;DHT22;3720;48.274;7.796;2023-12-20T07:49:35;6.80;99.90
7360;DHT22;3720;48.274;7.796;2023-12-20T07:52:06;6.80;99.90
7360;DHT22;3720;48.274;7.796;2023-12-20T07:54:39;6.90;99.90
7360;DHT22;3720;48.274;7.796;2023-12-20T07:57:12;6.90;99.90
7360;DHT22;3720;48.274;7.796;2023-12-20T07:59:44;6.90;99.90
7360;DHT22;3720;48.274;7.796;2023-12-20T08:02:16;6.90;99.90
7360;DHT22;3720;48.274;7.796;2023-12-20T08:04:48;6.90;99.90
7360;DHT22;3720;48.274;7.796;2023-12-20T08:07:20;7.00;99.90
7360;DHT22;3720;48.274;7.796;2023-12-20T08:09:51;6.90;99.90
7360;DHT22;3720;48.274;7.796;2023-12-20T08:12:27;6.90;99.90
7360;DHT22;3720;48.274;7.796;2023-12-20T08:14:59;7.00;99.90
7360;DHT22;3720;48.274;7.796;2023-12-20T08:17:30;7.00;99.90
7360;DHT22;3720;48.274;7.796;2023-12-20T08:20:03;7.00;99.90
7360;DHT22;3720;48.274;7.796;2023-12-20T08:22:35;7.00;99.90
7360;DHT22;3720;48.274;7.796;2023-12-20T08:25:07;7.10;99.90
7360;DHT22;3720;48.274;7.796;2023-12-20T08:27:41;7.20;99.90
7360;DHT22;3720;48.274;7.796;2023-12-20T08:30:13;7.20;99.90
7360;DHT22;3720;48.274;7.796;2023-12-20T08:32:47;7.20;99.90
7360;DHT22;3720;48.274;7.796;2023-12-20T08:35:19;7.20;99.90
7360;DHT22;3720;48.274;7.796;2023-12-20T08:37:51;7.20;99.90
7360;DHT22;3720;48.274;7.796;2023-12-20T08:40:23;7.20;99.90
7360;DHT22;3720;48.274;7.796;2023-12-20T08:42:56;7.30;99.90
7360;DHT22;3720;48.274;7.796;2023-12-20T08:45:28;7.30;99.90
7360;DHT22;3720;48.274;7.796;2023-12-20T08:48:00;7.30;99.90
7360;DHT22;3720;48.274;7.796;2023-12-20T08:50:32;7.30;99.90
7360;DHT22;3720;48.274;7.796;2023-12-20T08:53:04;7.40;99.90
7360;DHT22;3720;48.274;7.796;2023-12-20T08:55:36;7.40;99.90
7360;DHT22;3720;48.274;7.796;2023-12-20T08:58:09;7.40;99.90
7360;DHT22;3720;48.274;7.796;2023-12-20T09:00:41;7.50;99.90
7360;DHT22;3720;48.274;7.796;2023-12-20T09:03:13;7.50;99.90
7360;DHT22;3720;48.274;7.796;2023-12-20T09:05:45;7.60;99.90
7360;DHT22;3720;48.274;7.796;2023-12-20T09:08:17;7.70;99.90
7360;DHT22;3720;48.274;7.796;2023-12-20T09:10:48;7.90;99.90
7360;DHT22;3720;48.274;7.796;2023-12-20T09:13:22;8.10;99.90
7360;DHT22;3720;48.274;7.796;2023-12-20T09:15:58;8.30;99.90
7360;DHT22;3720;48.274;7.796;2023-12-20T09:18:30;8.50;99.90
7360;DHT22;3720;48.274;7.796;2023-12-20T09:21:02;8.70;99.90
7360;DHT22;3720;48.274;7.796;2023-12-20T09:23:34;8.90;99.90
7360;DHT22;3720;48.274;7.796;2023-12-20T09:26:07;9.00;99.90
7360;DHT22;3720;48.274;7.796;2023-12-20T09:28:40;9.10;99.90
7360;DHT22;3720;48.274;7.796;2023-12-20T09:31:12;9.20;99.90
7360;DHT22;3720;48.274;7.796;2023-12-20T09:33:44;9.20;99.90
7360;DHT22;3720;48.274;7.796;2023-12-20T09:36:16;9.20;99.90
7360;DHT22;3720;48.274;7.796;2023-12-20T09:38:47;9.20;99.90
7360;DHT22;3720;48.274;7.796;2023-12-20T09:41:19;9.20;99.90
7360;DHT22;3720;48.274;7.796;2023-12-20T09:43:54;9.20;99.90
7360;DHT22;3720;48.274;7.796;2023-12-20T09:46:29;9.20;99.90
7360;DHT22;3720;48.274;7.796;2023-12-20T09:49:04;9.30;99.90
7360;DHT22;3720;48.274;7.796;2023-12-20T09:51:37;9.30;99.90
7360;DHT22;3720;48.274;7.796;2023-12-20T09:54:09;9.40;99.90
7360;DHT22;3720;48.274;7.796;2023-12-20T09:56:41;9.40;99.90
7360;DHT22;3720;48.274;7.796;2023-12-20T09:59:15;9.50;99.90
7360;DHT22;3720;48.274;7.796;2023-12-20T10:01:47;9.50;99.90
7360;DHT22;3720;48.274;7.796;2023-12-20T10:04:19;9.60;99.90
7360;DHT22;3720;48.274;7.796;2023-12-20T10:06:51;9.80;99.90
7360;DHT22;3720;48.274;7.796;2023-12-20T10:09:24;9.90;99.90
7360;DHT22;3720;48.274;7.796;2023-12-20T10:11:56;9.90;99.90
7360;DHT22;3720;48.274;7.796;2023-12-20T10:14:29;9.90;99.90
7360;DHT22;3720;48.274;7.796;2023-12-20T10:17:02;9.80;99.90
7360;DHT22;3720;48.274;7.796;2023-12-20T10:19:34;10.00;99.90
7360;DHT22;3720;48.274;7.796;2023-12-20T10:22:06;10.10;99.90
7360;DHT22;3720;48.274;7.796;2023-12-20T10:24:38;10.20;99.90
7360;DHT22;3720;48.274;7.796;2023-12-20T10:27:11;10.30;99.90
7360;DHT22;3720;48.274;7.796;2023-12-20T10:29:44;10.60;99.90
7360;DHT22;3720;48.274;7.796;2023-12-20T10:32:24;11.00;99.90
7360;DHT22;3720;48.274;7.796;2023-12-20T10:34:56;11.10;99.90
7360;DHT22;3720;48.274;7.796;2023-12-20T10:37:29;11.00;99.90
7360;DHT22;3720;48.274;7.796;2023-12-20T10:40:03;11.10;99.90
7360;DHT22;3720;48.274;7.796;2023-12-20T10:42:37;11.10;99.90
7360;DHT22;3720;48.274;7.796;2023-12-20T10:45:12;11.20;99.90
7360;DHT22;3720;48.274;7.796;2023-12-20T10:47:46;11.20;99.90
7360;DHT22;3720;48.274;7.796;2023-12-20T10:50:19;11.30;99.90
7360;DHT22;3720;48.274;7.796;2023-12-20T10:52:52;11.20;99.90
7360;DHT22;3720;48.274;7.796;2023-12-20T10:55:26;11.00;99.90
7360;DHT22;3720;48.274;7.796;2023-12-20T10:58:01;10.90;99.90
7360;DHT22;3720;48.274;7.796;2023-12-20T11:00:35;10.80;99.90
7360;DHT22;3720;48.274;7.796;2023-12-20T11:03:11;10.90;99.90
7360;DHT22;3720;48.274;7.796;2023-12-20T11:05:49;10.90;99.90
7360;DHT22;3720;48.274;7.796;2023-12-20T11:08:27;11.00;99.90
7360;DHT22;3720;48.274;7.796;2023-12-20T11:11:03;11.30;99.90
7360;DHT22;3720;48.274;7.796;2023-12-20T11:13:41;11.30;99.90
7360;DHT22;3720;48.274;7.796;2023-12-20T11:16:16;11.10;99.90
7360;DHT22;3720;48.274;7.796;2023-12-20T11:18:50;11.10;99.90
7360;DHT22;3720;48.274;7.796;2023-12-20T11:21:23;10.90;99.90
7360;DHT22;3720;48.274;7.796;2023-12-20T11:23:55;10.90;99.90
7360;DHT22;3720;48.274;7.796;2023-12-20T11:26:28;11.10;99.90
7360;DHT22;3720;48.274;7.796;2023-12-20T11:32:34;10.70;99.90
7360;DHT22;3720;48.274;7.796;2023-12-20T11:35:18;10.50;99.90
7360;DHT22;3720;48.274;7.796;2023-12-20T11:37:51;10.00;99.90
7360;DHT22;3720;48.274;7.796;2023-12-20T11:40:23;9.80;99.90
7360;DHT22;3720;48.274;7.796;2023-12-20T11:42:55;9.70;99.90
7360;DHT22;3720;48.274;7.796;2023-12-20T11:45:27;9.60;99.90
7360;DHT22;3720;48.274;7.796;2023-12-20T11:48:01;9.60;99.90
7360;DHT22;3720;48.274;7.796;2023-12-20T11:50:34;9.50;99.90
7360;DHT22;3720;48.274;7.796;2023-12-20T11:53:05;9.40;99.90
7360;DHT22;3720;48.274;7.796;2023-12-20T11:55:37;9.30;99.90
7360;DHT22;3720;48.274;7.796;2023-12-20T11:58:09;9.20;99.90
7360;DHT22;3720;48.274;7.796;2023-12-20T12:00:41;9.20;99.90
7360;DHT22;3720;48.274;7.796;2023-12-20T12:03:16;9.20;99.90
7360;DHT22;3720;48.274;7.796;2023-12-20T12:05:48;9.20;99.90
7360;DHT22;3720;48.274;7.796;2023-12-20T12:08:20;9.10;99.90
7360;DHT22;3720;48.274;7.796;2023-12-20T12:10:52;9.10;99.90
7360;DHT22;3720;48.274;7.796;2023-12-20T12:13:24;9.00;99.90
7360;DHT22;3720;48.274;7.796;2023-12-20T12:15:59;9.00;99.90
7360;DHT22;3720;48.274;7.796;2023-12-20T12:18:32;9.00;99.90
7360;DHT22;3720;48.274;7.796;2023-12-20T12:21:04;8.90;99.90
7360;DHT22;3720;48.274;7.796;2023-12-20T12:23:36;9.00;99.90
7360;DHT22;3720;48.274;7.796;2023-12-20T12:26:08;9.00;99.90
7360;DHT22;3720;48.274;7.796;2023-12-20T12:28:40;9.10;99.90
7360;DHT22;3720;48.274;7.796;2023-12-20T12:31:13;9.10;99.90
7360;DHT22;3720;48.274;7.796;2023-12-20T12:33:47;9.00;99.90
7360;DHT22;3720;48.274;7.796;2023-12-20T12:36:19;9.00;99.90
7360;DHT22;3720;48.274;7.796;2023-12-20T12:38:51;9.00;99.90
7360;DHT22;3720;48.274;7.796;2023-12-20T12:41:23;9.00;99.90
7360;DHT22;3720;48.274;7.796;2023-12-20T12:43:55;9.00;99.90
7360;DHT22;3720;48.274;7.796;2023-12-20T12:46:27;9.00;99.90
7360;DHT22;3720;48.274;7.796;2023-12-20T12:49:00;9.00;99.90
7360;DHT22;3720;48.274;7.796;2023-12-20T12:51:32;9.00;99.90
7360;DHT22;3720;48.274;7.796;2023-12-20T12:54:04;9.00;99.90
7360;DHT22;3720;48.274;7.796;2023-12-20T12:56:36;9.10;99.90
7360;DHT22;3720;48.274;7.796;2023-12-20T12:59:08;9.10;99.90
7360;DHT22;3720;48.274;7.796;2023-12-20T13:01:40;9.00;99.90
7360;DHT22;3720;48.274;7.796;2023-12-20T13:04:13;9.10;99.90
7360;DHT22;3720;48.274;7.796;2023-12-20T13:06:45;9.10;99.90
7360;DHT22;3720;48.274;7.796;2023-12-20T13:09:17;9.20;99.90
7360;DHT22;3720;48.274;7.796;2023-12-20T13:11:49;9.20;99.90
7360;DHT22;3720;48.274;7.796;2023-12-20T13:14:21;9.30;99.90
7360;DHT22;3720;48.274;7.796;2023-12-20T13:16:53;9.30;99.90
7360;DHT22;3720;48.274;7.796;2023-12-20T13:19:26;9.30;99.90
7360;DHT22;3720;48.274;7.796;2023-12-20T13:21:58;9.20;99.90
7360;DHT22;3720;48.274;7.796;2023-12-20T13:24:30;9.10;99.90
7360;DHT22;3720;48.274;7.796;2023-12-20T13:27:03;9.00;99.90
7360;DHT22;3720;48.274;7.796;2023-12-20T13:29:34;9.00;99.90
7360;DHT22;3720;48.274;7.796;2023-12-20T13:32:07;8.90;99.90
7360;DHT22;3720;48.274;7.796;2023-12-20T13:34:40;8.80;99.90
7360;DHT22;3720;48.274;7.796;2023-12-20T13:37:12;8.80;99.90
7360;DHT22;3720;48.274;7.796;2023-12-20T13:39:44;8.80;99.90
7360;DHT22;3720;48.274;7.796;2023-12-20T13:42:16;8.80;99.90
7360;DHT22;3720;48.274;7.796;2023-12-20T13:44:48;8.80;99.90
7360;DHT22;3720;48.274;7.796;2023-12-20T13:47:20;8.70;99.90
7360;DHT22;3720;48.274;7.796;2023-12-20T13:49:53;8.70;99.90
7360;DHT22;3720;48.274;7.796;2023-12-20T13:52:26;8.70;99.90
7360;DHT22;3720;48.274;7.796;2023-12-20T13:54:58;8.70;99.90
7360;DHT22;3720;48.274;7.796;2023-12-20T13:57:30;8.70;99.90
7360;DHT22;3720;48.274;7.796;2023-12-20T14:00:02;8.60;99.90
7360;DHT22;3720;48.274;7.796;2023-12-20T14:02:34;8.60;99.90
7360;DHT22;3720;48.274;7.796;2023-12-20T14:05:08;8.60;99.90
7360;DHT22;3720;48.274;7.796;2023-12-20T14:07:40;8.70;99.90
7360;DHT22;3720;48.274;7.796;2023-12-20T14:10:16;8.70;99.90
7360;DHT22;3720;48.274;7.796;2023-12-20T14:12:47;8.60;99.90
7360;DHT22;3720;48.274;7.796;2023-12-20T14:15:19;8.60;99.90
7360;DHT22;3720;48.274;7.796;2023-12-20T14:17:51;8.60;99.90
7360;DHT22;3720;48.274;7.796;2023-12-20T14:20:24;8.60;99.90
7360;DHT22;3720;48.274;7.796;2023-12-20T14:22:57;8.60;99.90
7360;DHT22;3720;48.274;7.796;2023-12-20T14:25:29;8.60;99.90
7360;DHT22;3720;48.274;7.796;2023-12-20T14:28:01;8.50;99.90
7360;DHT22;3720;48.274;7.796;2023-12-20T14:30:33;8.50;99.90
7360;DHT22;3720;48.274;7.796;2023-12-20T14:33:07;8.40;99.90
7360;DHT22;3720;48.274;7.796;2023-12-20T14:35:40;8.50;99.90
7360;DHT22;3720;48.274;7.796;2023-12-20T14:38:13;8.40;99.90
7360;DHT22;3720;48.274;7.796;2023-12-20T14:40:45;8.30;99.90
7360;DHT22;3720;48.274;7.796;2023-12-20T14:43:17;8.20;99.90
7360;DHT22;3720;48.274;7.796;2023-12-20T14:45:49;8.20;99.90
7360;DHT22;3720;48.274;7.796;2023-12-20T14:48:21;8.10;99.90
7360;DHT22;3720;48.274;7.796;2023-12-20T14:50:54;8.10;99.90
7360;DHT22;3720;48.274;7.796;2023-12-20T14:53:26;8.10;99.90
7360;DHT22;3720;48.274;7.796;2023-12-20T14:55:58;8.10;99.90
7360;DHT22;3720;48.274;7.796;2023-12-20T14:58:30;8.00;99.90
7360;DHT22;3720;48.274;7.796;2023-12-20T15:01:02;8.00;99.90
7360;DHT22;3720;48.274;7.796;2023-12-20T15:03:34;8.00;99.90
7360;DHT22;3720;48.274;7.796;2023-12-20T15:06:08;7.90;99.90
7360;DHT22;3720;48.274;7.796;2023-12-20T15:08:42;7.90;99.90
7360;DHT22;3720;48.274;7.796;2023-12-20T15:11:14;7.80;99.90
7360;DHT22;3720;48.274;7.796;2023-12-20T15:13:45;7.80;99.90
7360;DHT22;3720;48.274;7.796;2023-12-20T15:16:25;7.80;99.90
7360;DHT22;3720;48.274;7.796;2023-12-20T15:18:57;7.80;99.90
7360;DHT22;3720;48.274;7.796;2023-12-20T15:21:30;7.80;99.90
7360;DHT22;3720;48.274;7.796;2023-12-20T15:24:05;7.80;99.90
7360;DHT22;3720;48.274;7.796;2023-12-20T15:26:43;7.80;99.90
7360;DHT22;3720;48.274;7.796;2023-12-20T15:29:16;7.80;99.90
7360;DHT22;3720;48.274;7.796;2023-12-20T15:31:48;7.80;99.90
7360;DHT22;3720;48.274;7.796;2023-12-20T15:34:20;7.80;99.90
7360;DHT22;3720;48.274;7.796;2023-12-20T15:36:53;7.80;99.90
7360;DHT22;3720;48.274;7.796;2023-12-20T15:39:25;7.70;99.90
7360;DHT22;3720;48.274;7.796;2023-12-20T15:41:58;7.70;99.90
7360;DHT22;3720;48.274;7.796;2023-12-20T15:44:29;7.70;99.90
7360;DHT22;3720;48.274;7.796;2023-12-20T15:47:01;7.70;99.90
7360;DHT22;3720;48.274;7.796;2023-12-20T15:49:33;7.70;99.90
7360;DHT22;3720;48.274;7.796;2023-12-20T15:52:07;7.70;99.90
7360;DHT22;3720;48.274;7.796;2023-12-20T15:54:38;7.80;99.90
7360;DHT22;3720;48.274;7.796;2023-12-20T15:57:12;7.70;99.90
7360;DHT22;3720;48.274;7.796;2023-12-20T15:59:45;7.70;99.90
7360;DHT22;3720;48.274;7.796;2023-12-20T16:02:17;7.70;99.90
7360;DHT22;3720;48.274;7.796;2023-12-20T16:04:49;7.70;99.90
7360;DHT22;3720;48.274;7.796;2023-12-20T16:07:22;7.70;99.90
7360;DHT22;3720;48.274;7.796;2023-12-20T16:09:54;7.70;99.90
7360;DHT22;3720;48.274;7.796;2023-12-20T16:12:26;7.60;99.90
7360;DHT22;3720;48.274;7.796;2023-12-20T16:14:58;7.50;99.90
7360;DHT22;3720;48.274;7.796;2023-12-20T16:17:30;7.40;99.90
7360;DHT22;3720;48.274;7.796;2023-12-20T16:20:05;7.40;99.90
7360;DHT22;3720;48.274;7.796;2023-12-20T16:22:39;7.40;99.90
7360;DHT22;3720;48.274;7.796;2023-12-20T16:25:11;7.30;99.90
7360;DHT22;3720;48.274;7.796;2023-12-20T16:27:42;7.20;99.90
7360;DHT22;3720;48.274;7.796;2023-12-20T16:30:15;7.20;99.90
7360;DHT22;3720;48.274;7.796;2023-12-20T16:32:46;7.20;99.90
7360;DHT22;3720;48.274;7.796;2023-12-20T16:35:18;7.20;99.90
7360;DHT22;3720;48.274;7.796;2023-12-20T16:37:52;7.20;99.90
7360;DHT22;3720;48.274;7.796;2023-12-20T16:40:23;7.10;99.90
7360;DHT22;3720;48.274;7.796;2023-12-20T16:42:55;7.10;99.90
7360;DHT22;3720;48.274;7.796;2023-12-20T16:45:27;7.00;99.90
7360;DHT22;3720;48.274;7.796;2023-12-20T16:47:59;7.00;99.90
7360;DHT22;3720;48.274;7.796;2023-12-20T16:50:31;7.00;99.90
7360;DHT22;3720;48.274;7.796;2023-12-20T16:53:04;6.90;99.90
7360;DHT22;3720;48.274;7.796;2023-12-20T16:55:36;6.90;99.90